createdAt,value
2022-07-30T00:02:10.227Z,19.24
2022-07-30T00:04:37.936Z,19.31
2022-07-30T00:07:05.674Z,19.21
2022-07-30T00:09:34.290Z,19.18
2022-07-30T00:12:02.357Z,19.14
2022-07-30T00:14:30.784Z,19.03
2022-07-30T00:16:58.776Z,19.05
2022-07-30T00:19:28.326Z,18.97
2022-07-30T00:21:56.118Z,18.91
2022-07-30T00:24:24.855Z,18.91
2022-07-30T00:26:52.595Z,18.80
2022-07-30T00:29:20.387Z,18.85
2022-07-30T00:31:48.253Z,18.88
2022-07-30T00:34:15.971Z,18.90
2022-07-30T00:36:45.126Z,18.94
2022-07-30T00:39:12.876Z,19.00
2022-07-30T00:41:54.649Z,18.92
2022-07-30T00:44:22.206Z,19.01
2022-07-30T00:46:49.918Z,18.87
2022-07-30T00:49:17.792Z,18.98
2022-07-30T00:51:46.995Z,18.94
2022-07-30T00:54:15.463Z,18.95
2022-07-30T00:56:43.452Z,18.97
2022-07-30T00:59:11.257Z,18.93
2022-07-30T01:01:39.150Z,18.97
2022-07-30T01:04:11.535Z,18.96
2022-07-30T01:06:40.192Z,18.89
2022-07-30T01:09:09.540Z,18.89
2022-07-30T01:11:38.673Z,18.89
2022-07-30T01:14:07.676Z,18.79
2022-07-30T01:16:36.048Z,18.71
2022-07-30T01:19:26.500Z,18.75
2022-07-30T01:22:02.280Z,18.78
2022-07-30T01:24:36.885Z,18.76
2022-07-30T01:27:07.572Z,18.74
2022-07-30T01:29:37.150Z,18.75
2022-07-30T01:32:07.368Z,18.64
2022-07-30T01:34:36.017Z,18.66
2022-07-30T01:37:04.949Z,18.63
2022-07-30T01:39:33.315Z,18.59
2022-07-30T01:42:05.230Z,18.64
2022-07-30T01:44:35.044Z,18.63
2022-07-30T01:47:03.827Z,18.67
2022-07-30T01:49:32.069Z,18.68
2022-07-30T01:52:01.164Z,18.72
2022-07-30T01:54:29.703Z,18.74
2022-07-30T01:56:58.715Z,18.71
2022-07-30T01:59:27.974Z,18.74
2022-07-30T02:01:57.394Z,18.74
2022-07-30T02:04:25.140Z,18.70
2022-07-30T02:06:58.155Z,18.63
2022-07-30T02:09:30.208Z,18.63
2022-07-30T02:12:16.508Z,18.62
2022-07-30T02:14:49.242Z,18.45
2022-07-30T02:17:22.529Z,18.42
2022-07-30T02:19:58.526Z,18.34
2022-07-30T02:22:29.458Z,18.33
2022-07-30T02:24:58.872Z,18.20
2022-07-30T02:27:29.621Z,18.25
2022-07-30T02:29:59.278Z,18.20
2022-07-30T02:32:30.999Z,18.18
2022-07-30T02:35:00.018Z,18.14
2022-07-30T02:37:41.650Z,18.10
2022-07-30T02:40:13.471Z,18.11
2022-07-30T02:42:42.440Z,18.06
2022-07-30T02:45:11.636Z,18.08
2022-07-30T02:47:41.076Z,18.04
2022-07-30T02:50:10.737Z,17.94
2022-07-30T02:52:39.015Z,17.95
2022-07-30T02:55:08.902Z,17.99
2022-07-30T02:57:37.234Z,17.93
2022-07-30T03:00:12.980Z,17.90
2022-07-30T03:02:43.722Z,17.83
2022-07-30T03:05:12.022Z,17.82
2022-07-30T03:07:40.498Z,17.79
2022-07-30T03:10:09.182Z,17.84
2022-07-30T03:12:37.862Z,17.90
2022-07-30T03:15:06.596Z,17.91
2022-07-30T03:17:39.558Z,17.95
2022-07-30T03:20:10.807Z,17.92
2022-07-30T03:22:41.721Z,17.98
2022-07-30T03:25:10.838Z,17.85
2022-07-30T03:27:39.184Z,17.86
2022-07-30T03:30:09.325Z,17.79
2022-07-30T03:32:37.882Z,17.88
2022-07-30T03:35:16.818Z,17.89
2022-07-30T03:37:45.566Z,17.91
2022-07-30T03:40:14.549Z,17.86
2022-07-30T03:42:42.577Z,17.85
2022-07-30T03:45:13.711Z,17.89
2022-07-30T03:47:42.672Z,17.87
2022-07-30T03:50:12.973Z,17.89
2022-07-30T03:52:41.750Z,17.87
2022-07-30T03:55:11.246Z,17.83
2022-07-30T03:57:39.320Z,17.90
2022-07-30T04:00:08.868Z,17.94
2022-07-30T04:02:42.706Z,17.92
2022-07-30T04:05:12.557Z,17.84
2022-07-30T04:07:41.411Z,17.86
2022-07-30T04:10:14.076Z,17.83
2022-07-30T04:12:41.889Z,17.90
2022-07-30T04:16:38.014Z,17.86
2022-07-30T04:18:01.388Z,17.89
2022-07-30T04:20:34.296Z,17.89
2022-07-30T04:23:02.708Z,17.74
2022-07-30T04:25:31.097Z,17.84
2022-07-30T04:28:03.605Z,17.83
2022-07-30T04:30:33.355Z,17.85
2022-07-30T04:33:01.746Z,17.89
2022-07-30T04:35:51.347Z,17.89
2022-07-30T04:38:19.605Z,17.97
2022-07-30T04:40:47.842Z,17.93
2022-07-30T04:43:15.646Z,18.01
2022-07-30T04:45:43.617Z,17.99
2022-07-30T04:48:11.344Z,18.03
2022-07-30T04:50:43.125Z,18.08
2022-07-30T04:53:11.103Z,18.14
2022-07-30T04:55:42.469Z,18.08
2022-07-30T04:58:10.914Z,18.00
2022-07-30T05:00:41.313Z,18.05
2022-07-30T05:03:09.956Z,18.06
2022-07-30T05:05:37.783Z,18.08
2022-07-30T05:08:07.426Z,17.96
2022-07-30T05:10:36.766Z,18.06
2022-07-30T05:13:04.833Z,18.07
2022-07-30T05:15:36.275Z,18.06
2022-07-30T05:18:05.534Z,18.05
2022-07-30T05:20:33.248Z,18.04
2022-07-30T05:23:01.494Z,18.10
2022-07-30T05:25:30.659Z,18.16
2022-07-30T05:27:58.329Z,18.17
2022-07-30T05:30:27.706Z,18.15
2022-07-30T05:32:56.175Z,18.16
2022-07-30T05:35:24.007Z,18.22
2022-07-30T05:37:51.688Z,18.22
2022-07-30T05:40:19.441Z,18.27
2022-07-30T05:42:48.569Z,18.31
2022-07-30T05:45:16.272Z,18.29
2022-07-30T05:47:44.125Z,18.32
2022-07-30T05:50:12.659Z,18.32
2022-07-30T05:52:40.422Z,18.36
2022-07-30T05:55:10.769Z,18.40
2022-07-30T05:57:38.609Z,18.32
2022-07-30T06:00:10.610Z,18.38
2022-07-30T06:02:39.409Z,18.41
2022-07-30T06:05:07.727Z,18.44
2022-07-30T06:07:35.862Z,18.45
2022-07-30T06:10:05.186Z,18.51
2022-07-30T06:12:33.086Z,18.58
2022-07-30T06:15:01.040Z,18.60
2022-07-30T06:17:30.438Z,18.54
2022-07-30T06:20:00.536Z,18.73
2022-07-30T06:22:28.402Z,18.72
2022-07-30T06:24:56.149Z,18.77
2022-07-30T06:27:24.147Z,18.84
2022-07-30T06:29:51.991Z,18.82
2022-07-30T06:32:19.789Z,18.93
2022-07-30T06:34:53.329Z,18.93
2022-07-30T06:38:06.159Z,19.07
2022-07-30T06:40:14.353Z,19.16
2022-07-30T06:42:42.166Z,19.20
2022-07-30T06:45:11.439Z,19.26
2022-07-30T06:47:39.177Z,19.41
2022-07-30T06:50:12.200Z,19.42
2022-07-30T06:52:40.608Z,19.39
2022-07-30T06:55:10.046Z,19.45
2022-07-30T06:57:42.405Z,19.44
2022-07-30T07:00:12.472Z,19.52
2022-07-30T07:02:42.620Z,19.52
2022-07-30T07:05:12.121Z,19.40
2022-07-30T07:07:44.445Z,19.34
2022-07-30T07:10:20.706Z,19.03
2022-07-30T07:12:48.552Z,19.14
2022-07-30T07:15:16.979Z,19.12
2022-07-30T07:17:44.854Z,19.11
2022-07-30T07:20:14.288Z,19.10
2022-07-30T07:22:42.013Z,19.14
2022-07-30T07:25:10.459Z,19.16
2022-07-30T07:27:38.672Z,19.20
2022-07-30T07:30:07.725Z,19.08
2022-07-30T07:32:36.570Z,19.22
2022-07-30T07:35:04.702Z,19.35
2022-07-30T07:37:33.743Z,19.51
2022-07-30T07:40:01.405Z,19.68
2022-07-30T07:42:29.118Z,19.82
2022-07-30T07:44:56.859Z,19.97
2022-07-30T07:47:24.602Z,19.89
2022-07-30T07:49:55.976Z,19.89
2022-07-30T07:52:23.817Z,19.89
2022-07-30T07:54:52.920Z,20.10
2022-07-30T07:57:20.677Z,20.27
2022-07-30T07:59:49.893Z,20.30
2022-07-30T08:02:17.760Z,20.40
2022-07-30T08:04:46.568Z,20.53
2022-07-30T08:07:14.478Z,20.58
2022-07-30T08:09:44.694Z,20.72
2022-07-30T08:12:14.715Z,20.93
2022-07-30T08:14:42.813Z,21.16
2022-07-30T08:17:10.939Z,21.47
2022-07-30T08:19:38.706Z,21.63
2022-07-30T08:22:06.428Z,21.59
2022-07-30T08:24:34.315Z,21.65
2022-07-30T08:27:02.284Z,21.65
2022-07-30T08:29:31.632Z,21.56
2022-07-30T08:31:59.584Z,21.60
2022-07-30T08:34:27.414Z,21.58
2022-07-30T08:36:55.384Z,21.67
2022-07-30T08:39:23.168Z,21.76
2022-07-30T08:41:51.165Z,21.73
2022-07-30T08:44:21.730Z,21.86
2022-07-30T08:46:52.176Z,22.07
2022-07-30T08:49:20.222Z,22.07
2022-07-30T08:51:48.145Z,22.07
2022-07-30T08:54:15.908Z,22.14
2022-07-30T08:56:43.881Z,22.23
2022-07-30T08:59:12.186Z,22.36
2022-07-30T09:01:40.182Z,22.57
2022-07-30T09:04:09.468Z,22.40
2022-07-30T09:06:37.589Z,22.54
2022-07-30T09:09:05.422Z,22.55
2022-07-30T09:11:35.167Z,22.62
2022-07-30T09:14:09.822Z,22.58
2022-07-30T09:16:37.827Z,22.73
2022-07-30T09:19:16.538Z,22.80
2022-07-30T09:21:44.679Z,22.82
2022-07-30T09:24:13.714Z,22.84
2022-07-30T09:26:56.063Z,22.81
2022-07-30T09:29:25.251Z,22.71
2022-07-30T09:32:00.979Z,22.89
2022-07-30T09:34:32.024Z,22.78
2022-07-30T09:37:02.397Z,22.73
2022-07-30T09:39:34.279Z,22.81
2022-07-30T09:42:02.837Z,22.91
2022-07-30T09:44:31.339Z,22.94
2022-07-30T09:46:59.614Z,23.03
2022-07-30T09:49:28.786Z,23.33
2022-07-30T09:51:59.032Z,23.42
2022-07-30T09:54:27.140Z,23.53
2022-07-30T09:59:57.338Z,23.58
2022-07-30T10:02:32.061Z,23.65
2022-07-30T10:05:14.080Z,23.83
2022-07-30T10:07:52.090Z,24.04
2022-07-30T10:10:25.238Z,24.20
2022-07-30T10:12:56.381Z,24.38
2022-07-30T10:15:26.174Z,24.35
2022-07-30T10:17:55.740Z,24.50
2022-07-30T10:20:25.628Z,24.34
2022-07-30T10:22:55.423Z,24.37
2022-07-30T10:25:28.077Z,24.31
2022-07-30T10:27:57.987Z,24.14
2022-07-30T10:30:28.321Z,24.03
2022-07-30T10:32:58.819Z,23.91
2022-07-30T10:35:34.166Z,23.83
2022-07-30T10:38:08.898Z,23.86
2022-07-30T10:40:39.820Z,23.80
2022-07-30T10:43:33.888Z,23.55
2022-07-30T10:46:09.302Z,23.72
2022-07-30T10:48:49.803Z,23.68
2022-07-30T10:51:25.634Z,23.80
2022-07-30T10:54:03.825Z,23.83
2022-07-30T10:56:31.680Z,23.74
2022-07-30T10:59:04.183Z,23.89
2022-07-30T11:02:09.365Z,23.97
2022-07-30T11:04:38.141Z,24.09
2022-07-30T11:07:29.308Z,24.26
2022-07-30T11:10:05.372Z,24.09
2022-07-30T11:12:56.512Z,24.08
2022-07-30T11:15:24.978Z,24.35
2022-07-30T11:18:13.075Z,24.57
2022-07-30T11:20:48.462Z,24.45
2022-07-30T11:23:39.453Z,24.54
2022-07-30T11:26:14.442Z,24.44
2022-07-30T11:28:44.746Z,24.40
2022-07-30T11:31:36.947Z,24.53
2022-07-30T11:34:31.295Z,24.43
2022-07-30T11:37:18.132Z,24.37
2022-07-30T11:40:14.179Z,24.57
2022-07-30T11:42:43.781Z,24.48
2022-07-30T11:45:26.859Z,24.20
2022-07-30T11:47:57.614Z,24.39
2022-07-30T11:50:26.983Z,24.28
2022-07-30T11:52:56.249Z,24.16
2022-07-30T11:55:26.327Z,24.06
2022-07-30T11:57:55.676Z,23.91
2022-07-30T12:00:23.890Z,23.69
2022-07-30T12:02:51.884Z,23.66
2022-07-30T12:05:25.185Z,23.61
2022-07-30T12:07:53.665Z,23.51
2022-07-30T12:10:26.874Z,23.61
2022-07-30T12:13:08.681Z,23.53
2022-07-30T12:15:38.479Z,23.67
2022-07-30T12:20:57.639Z,23.73
2022-07-30T12:23:27.879Z,23.59
2022-07-30T12:25:56.211Z,23.71
2022-07-30T12:28:27.856Z,23.59
2022-07-30T12:30:56.347Z,23.67
2022-07-30T12:33:25.421Z,23.91
2022-07-30T12:35:54.949Z,23.97
2022-07-30T12:38:23.840Z,23.94
2022-07-30T12:40:56.590Z,23.94
2022-07-30T12:43:44.998Z,23.94
2022-07-30T12:46:15.142Z,23.90
2022-07-30T12:48:57.883Z,23.84
2022-07-30T12:51:27.254Z,23.84
2022-07-30T12:53:56.615Z,23.71
2022-07-30T12:56:26.004Z,23.61
2022-07-30T12:58:56.271Z,23.63
2022-07-30T13:01:41.937Z,23.74
2022-07-30T13:04:10.296Z,23.72
2022-07-30T13:06:40.406Z,23.74
2022-07-30T13:09:08.608Z,23.73
2022-07-30T13:11:41.251Z,23.86
2022-07-30T13:14:12.564Z,24.06
2022-07-30T13:16:42.061Z,24.10
2022-07-30T13:19:12.324Z,23.93
2022-07-30T13:21:41.044Z,23.83
2022-07-30T13:24:18.133Z,23.70
2022-07-30T13:26:46.189Z,23.70
2022-07-30T13:29:15.524Z,23.48
2022-07-30T13:31:43.673Z,23.28
2022-07-30T13:34:11.912Z,23.18
2022-07-30T13:36:39.795Z,23.27
2022-07-30T13:39:07.639Z,23.22
2022-07-30T13:41:36.151Z,23.26
2022-07-30T13:44:04.921Z,23.33
2022-07-30T13:46:35.523Z,23.26
2022-07-30T13:49:03.454Z,23.21
2022-07-30T13:51:31.548Z,23.08
2022-07-30T13:54:01.130Z,23.06
2022-07-30T13:56:28.968Z,23.07
2022-07-30T13:58:56.838Z,23.07
2022-07-30T14:01:24.789Z,22.90
2022-07-30T14:03:53.929Z,22.71
2022-07-30T14:06:22.439Z,22.72
2022-07-30T14:08:50.272Z,22.63
2022-07-30T14:11:18.125Z,22.58
2022-07-30T14:13:46.201Z,22.52
2022-07-30T14:16:35.718Z,22.51
2022-07-30T14:19:03.417Z,22.34
2022-07-30T14:21:31.525Z,22.15
2022-07-30T14:23:59.656Z,22.13
2022-07-30T14:26:30.067Z,22.07
2022-07-30T14:29:02.376Z,21.96
2022-07-30T14:31:30.318Z,21.94
2022-07-30T14:33:58.206Z,21.81
2022-07-30T14:36:29.918Z,21.90
2022-07-30T14:38:58.282Z,21.71
2022-07-30T14:41:26.639Z,21.90
2022-07-30T14:43:54.418Z,21.94
2022-07-30T14:46:22.172Z,21.95
2022-07-30T14:48:50.430Z,21.93
2022-07-30T14:51:24.356Z,21.88
2022-07-30T14:53:55.358Z,21.81
2022-07-30T14:56:25.247Z,21.80
2022-07-30T14:58:54.392Z,21.77
2022-07-30T15:01:22.432Z,21.75
2022-07-30T15:03:50.466Z,21.68
2022-07-30T15:06:18.488Z,21.71
2022-07-30T15:08:46.801Z,21.70
2022-07-30T15:11:17.092Z,21.69
2022-07-30T15:13:50.201Z,21.60
2022-07-30T15:16:19.119Z,21.65
2022-07-30T15:18:47.334Z,21.59
2022-07-30T15:21:15.391Z,21.54
2022-07-30T15:23:43.295Z,21.54
2022-07-30T15:26:11.659Z,21.47
2022-07-30T15:28:40.763Z,21.39
2022-07-30T15:31:08.703Z,21.43
2022-07-30T15:33:42.006Z,21.25
2022-07-30T15:36:10.366Z,21.32
2022-07-30T15:38:38.287Z,21.37
2022-07-30T15:41:08.385Z,21.40
2022-07-30T15:43:40.873Z,21.32
2022-07-30T15:46:08.620Z,21.21
2022-07-30T15:48:37.869Z,21.23
2022-07-30T15:51:07.882Z,21.21
2022-07-30T15:53:36.264Z,21.14
2022-07-30T15:56:04.560Z,21.22
2022-07-30T15:58:32.509Z,21.18
2022-07-30T16:01:01.744Z,21.07
2022-07-30T16:03:29.595Z,21.05
2022-07-30T16:05:57.439Z,20.94
2022-07-30T16:08:25.465Z,20.93
2022-07-30T16:10:53.273Z,20.95
2022-07-30T16:13:21.156Z,20.96
2022-07-30T16:15:48.992Z,20.95
2022-07-30T16:18:18.324Z,20.83
2022-07-30T16:20:46.050Z,20.90
2022-07-30T16:23:17.069Z,20.88
2022-07-30T16:25:48.680Z,20.82
2022-07-30T16:28:17.389Z,20.86
2022-07-30T16:30:51.490Z,20.87
2022-07-30T16:33:24.653Z,20.88
2022-07-30T16:35:54.898Z,20.72
2022-07-30T16:38:26.246Z,20.65
2022-07-30T16:40:59.625Z,20.60
2022-07-30T16:43:36.427Z,20.61
2022-07-30T16:46:04.419Z,20.67
2022-07-30T16:48:33.845Z,20.59
2022-07-30T16:51:01.728Z,20.67
2022-07-30T16:53:29.772Z,20.67
2022-07-30T16:55:58.479Z,20.64
2022-07-30T16:58:28.316Z,20.66
2022-07-30T17:00:58.759Z,20.65
2022-07-30T17:03:26.659Z,20.66
2022-07-30T17:05:55.916Z,20.59
2022-07-30T17:08:25.955Z,20.58
2022-07-30T17:10:55.808Z,20.62
2022-07-30T17:13:25.124Z,20.60
2022-07-30T17:15:53.113Z,20.55
2022-07-30T17:18:20.831Z,20.48
2022-07-30T17:20:48.674Z,20.42
2022-07-30T17:23:17.932Z,20.36
2022-07-30T17:25:46.048Z,20.34
2022-07-30T17:28:13.781Z,20.32
2022-07-30T17:30:42.189Z,20.25
2022-07-30T17:33:11.043Z,20.23
2022-07-30T17:35:39.039Z,20.20
2022-07-30T17:38:07.292Z,20.12
2022-07-30T17:40:36.400Z,20.11
2022-07-30T17:43:04.839Z,20.05
2022-07-30T17:45:33.427Z,20.02
2022-07-30T17:48:01.657Z,20.04
2022-07-30T17:50:30.732Z,19.94
2022-07-30T17:52:58.658Z,19.96
2022-07-30T17:55:30.551Z,19.94
2022-07-30T17:57:59.682Z,20.00
2022-07-30T18:00:27.470Z,20.00
2022-07-30T18:02:55.328Z,19.97
2022-07-30T18:05:23.170Z,19.93
2022-07-30T18:07:50.986Z,19.96
2022-07-30T18:10:21.191Z,19.96
2022-07-30T18:12:49.624Z,19.80
2022-07-30T18:15:19.235Z,19.87
2022-07-30T18:17:47.395Z,19.89
2022-07-30T18:20:15.792Z,19.82
2022-07-30T18:22:43.573Z,19.83
2022-07-30T18:25:19.173Z,19.50
2022-07-30T18:27:47.460Z,19.22
2022-07-30T18:30:15.334Z,18.95
2022-07-30T18:32:44.698Z,18.94
2022-07-30T18:35:15.235Z,19.02
2022-07-30T18:37:43.747Z,19.23
2022-07-30T18:40:13.254Z,19.32
2022-07-30T18:42:41.459Z,19.41
2022-07-30T18:45:13.794Z,19.34
2022-07-30T18:47:42.308Z,19.45
2022-07-30T18:50:12.440Z,19.45
2022-07-30T18:52:40.505Z,19.38
2022-07-30T18:55:18.308Z,19.39
2022-07-30T18:57:46.051Z,19.40
2022-07-30T19:00:34.824Z,19.36
2022-07-30T19:03:03.115Z,19.37
2022-07-30T19:05:32.356Z,19.27
2022-07-30T19:08:00.099Z,19.32
2022-07-30T19:10:28.868Z,19.27
2022-07-30T19:12:57.783Z,19.29
2022-07-30T19:15:26.215Z,19.33
2022-07-30T19:17:54.225Z,19.29
2022-07-30T19:20:23.487Z,19.29
2022-07-30T19:22:53.310Z,19.27
2022-07-30T19:25:21.880Z,19.18
2022-07-30T19:27:49.728Z,19.16
2022-07-30T19:30:17.709Z,19.05
2022-07-30T19:32:47.505Z,19.08
2022-07-30T19:35:15.275Z,19.15
2022-07-30T19:37:43.207Z,19.12
2022-07-30T19:40:15.293Z,19.11
2022-07-30T19:42:43.411Z,19.09
2022-07-30T19:45:13.321Z,19.04
2022-07-30T19:47:42.404Z,18.98
2022-07-30T19:50:11.101Z,18.92
2022-07-30T19:52:39.701Z,18.89
2022-07-30T19:55:18.400Z,18.83
2022-07-30T19:58:03.593Z,18.77
2022-07-30T20:00:35.821Z,18.73
2022-07-30T20:03:03.752Z,18.72
2022-07-30T20:05:33.319Z,18.77
2022-07-30T20:08:24.875Z,18.76
2022-07-30T20:10:53.002Z,18.79
2022-07-30T20:13:22.611Z,18.76
2022-07-30T20:15:53.527Z,18.71
2022-07-30T20:18:29.048Z,18.74
2022-07-30T20:20:57.680Z,18.75
2022-07-30T20:23:25.933Z,18.62
2022-07-30T20:25:55.759Z,18.62
2022-07-30T20:28:26.031Z,18.54
2022-07-30T20:30:53.779Z,18.60
2022-07-30T20:33:23.788Z,18.57
2022-07-30T20:36:03.830Z,18.56
2022-07-30T20:38:33.721Z,18.50
2022-07-30T20:41:03.802Z,18.47
2022-07-30T20:43:46.160Z,18.49
2022-07-30T20:46:20.191Z,18.50
2022-07-30T20:48:48.036Z,18.50
2022-07-30T20:51:15.757Z,18.43
2022-07-30T20:53:45.200Z,18.56
2022-07-30T20:56:14.874Z,18.53
2022-07-30T20:58:45.331Z,18.52
2022-07-30T21:01:15.400Z,18.49
2022-07-30T21:03:47.862Z,18.48
2022-07-30T21:06:16.882Z,18.48
2022-07-30T21:08:44.761Z,18.50
2022-07-30T21:11:12.923Z,18.48
2022-07-30T21:13:42.349Z,18.48
2022-07-30T21:16:15.430Z,18.41
2022-07-30T21:18:49.766Z,18.46
2022-07-30T21:21:30.754Z,18.44
2022-07-30T21:24:11.505Z,18.30
2022-07-30T21:26:41.361Z,18.32
2022-07-30T21:29:09.498Z,18.34
2022-07-30T21:32:01.922Z,18.30
2022-07-30T21:34:30.896Z,18.36
2022-07-30T21:37:03.499Z,18.22
2022-07-30T21:39:31.242Z,18.29
2022-07-30T21:42:07.696Z,18.27
2022-07-30T21:44:35.519Z,18.32
2022-07-30T21:47:04.635Z,18.39
2022-07-30T21:49:32.509Z,18.41
2022-07-30T21:52:00.873Z,18.36
2022-07-30T21:54:31.671Z,18.38
2022-07-30T21:57:01.723Z,18.26
2022-07-30T21:59:29.448Z,18.44
2022-07-30T22:01:57.363Z,18.49
2022-07-30T22:04:27.364Z,18.51
2022-07-30T22:06:55.231Z,18.51
2022-07-30T22:09:33.971Z,18.52
2022-07-30T22:12:06.453Z,18.54
2022-07-30T22:14:37.834Z,18.47
2022-07-30T22:17:05.993Z,18.52
2022-07-30T22:19:51.673Z,18.53
2022-07-30T22:22:26.807Z,18.64
2022-07-30T22:24:57.332Z,18.65
2022-07-30T22:27:27.824Z,18.70
2022-07-30T22:30:10.716Z,18.74
2022-07-30T22:32:41.590Z,18.69
2022-07-30T22:35:12.041Z,18.66
2022-07-30T22:37:44.289Z,18.68
2022-07-30T22:40:13.824Z,18.68
2022-07-30T22:42:49.476Z,18.75
2022-07-30T22:45:42.282Z,18.72
2022-07-30T22:50:56.189Z,18.78
2022-07-30T22:54:02.947Z,18.77
2022-07-30T22:59:02.350Z,18.78
2022-07-30T23:01:33.074Z,18.74
2022-07-30T23:04:01.526Z,18.73
2022-07-30T23:06:30.933Z,18.73
2022-07-30T23:08:58.679Z,18.66
2022-07-30T23:11:26.492Z,18.64
2022-07-30T23:12:33.793Z,18.76
2022-07-30T23:12:34.599Z,18.76
2022-07-30T23:14:05.108Z,18.64
2022-07-30T23:16:32.868Z,18.66
2022-07-30T23:19:00.780Z,18.67
2022-07-30T23:21:30.044Z,18.61
2022-07-30T23:23:57.966Z,18.57
2022-07-30T23:26:25.826Z,18.57
2022-07-30T23:28:53.691Z,18.56
2022-07-30T23:31:25.186Z,18.58
2022-07-30T23:33:54.703Z,18.61
2022-07-30T23:36:22.544Z,18.58
2022-07-30T23:38:51.940Z,18.53
2022-07-30T23:41:29.775Z,18.55
2022-07-30T23:43:58.620Z,18.63
2022-07-30T23:46:26.347Z,18.66
2022-07-30T23:48:54.149Z,18.53
2022-07-30T23:51:22.023Z,18.66
2022-07-30T23:53:51.160Z,18.64
2022-07-30T23:56:21.196Z,18.60
2022-07-30T23:58:53.792Z,18.52
